Airfield :
LOGIN :

Register | Disclaimer

   EN    FR    IT 

 










Legend :    VFR   Marginal VFR   IFR   Intensive IFR   Very Intensive IFR
Visi :
Ceiling :
>= 8 km
>= 3000ft
5 to 8 km
1000 to 3000 ft
1500m to 5 km
500 to 1000 ft
800 to 1500m
200 to 500 ft
< 800m
< 200 ft
Symbols :   Thunderstorms  Fog  Heavy snow  Heavy precipitations  Wind > 20 kt
SIGMETs :     Misc.  Thunderstorms  Icing  Turbulence  Mountain Waves  Volcanic Ashes






- Airport Elevation : 319 ft


EIME - Casement Air Base

CURRENT METAR :
  • 100500Z 22003KT 8000 BKN003 BKN020 12/11 Q1018

EXPIRED METARs :
  • 100400Z VRB03KT 9999 FEW018 SCT040 BKN190 11/11 Q1018
  • 100300Z 27003KT 9999 FEW018 BKN040 BKN250 11/11 Q1018

TAF TAF EIME
Valid from the 10 at 03:00 until the 10 at 12:00 UTC


100200Z 1003/1012 VRB03KT 9999 FEW018 BKN045
TEMPO 1003/1009 3000 BR BKN008
PROB30
TEMPO 1004/1008 0800 FG BKN001
BECMG 1010/1012 05006KT



MET'MAP, your aeronautical weather chart ! - Copyright ORBIFLY December 2007 - Disclaimer

ORBIFLY MET'MAP TEAM :

Programming & Development : Alexandra Zaïnal
Concept & original design : Baudouin d'Aumeries
Assistance for programming : Marc-Olivier Méhu
Technical & hardware support : Manuel Goepfert

Contact : metmap@orbifly.com




SOURCES & CREDITS :

   NOAA